sensor_id;sensor_type;location;lat;lon;timestamp;pressure;altitude;pressure_sealevel;temperature;humidity
7832;BME280;3961;42.058;25.586;2022-09-30T11:20:59;65546.47;;;29.18;48.77
7832;BME280;3961;42.058;25.586;2022-09-30T11:43:19;65664.13;;;30.17;42.94
7832;BME280;3961;42.058;25.586;2022-09-30T11:54:20;65684.75;;;30.35;40.58
7832;BME280;3961;42.058;25.586;2022-09-30T11:59:28;65731.75;;;30.73;39.65
7832;BME280;3961;42.058;25.586;2022-09-30T12:01:57;65748.25;;;30.87;39.90
7832;BME280;3961;42.058;25.586;2022-09-30T12:07:04;65751.19;;;30.90;38.90
7832;BME280;3961;42.058;25.586;2022-09-30T12:09:37;65722.88;;;30.65;37.73
7832;BME280;3961;42.058;25.586;2022-09-30T12:12:16;65740.81;;;30.83;38.69
7832;BME280;3961;42.058;25.586;2022-09-30T12:14:50;65765.56;;;31.04;38.71
7832;BME280;3961;42.058;25.586;2022-09-30T12:17:41;65755.69;;;30.91;37.54
7832;BME280;3961;42.058;25.586;2022-09-30T12:26:01;65708.13;;;30.53;37.89
7832;BME280;3961;42.058;25.586;2022-09-30T12:28:40;65722.69;;;30.63;37.58
7832;BME280;3961;42.058;25.586;2022-09-30T12:31:36;65705.41;;;30.53;37.57
7832;BME280;3961;42.058;25.586;2022-09-30T12:34:20;65729.38;;;30.71;38.63
7832;BME280;3961;42.058;25.586;2022-09-30T12:37:08;65754.94;;;30.95;37.01
7832;BME280;3961;42.058;25.586;2022-09-30T12:47:58;65813.38;;;31.46;37.24
7832;BME280;3961;42.058;25.586;2022-09-30T12:50:33;65789.19;;;31.25;37.37
7832;BME280;3961;42.058;25.586;2022-09-30T12:53:19;65809.63;;;31.40;38.36
7832;BME280;3961;42.058;25.586;2022-09-30T12:55:46;65802.56;;;31.34;36.97
7832;BME280;3961;42.058;25.586;2022-09-30T12:58:25;65807.06;;;31.35;36.68
7832;BME280;3961;42.058;25.586;2022-09-30T13:01:09;65811.03;;;31.44;37.20
7832;BME280;3961;42.058;25.586;2022-09-30T13:11:42;65811.41;;;31.42;37.21
7832;BME280;3961;42.058;25.586;2022-09-30T13:19:52;65740.22;;;30.83;38.02
7832;BME280;3961;42.058;25.586;2022-09-30T13:25:11;65726.84;;;30.73;37.48
7832;BME280;3961;42.058;25.586;2022-09-30T13:27:52;65687.47;;;30.35;38.44
7832;BME280;3961;42.058;25.586;2022-09-30T13:33:26;65652.13;;;30.04;38.99
7832;BME280;3961;42.058;25.586;2022-09-30T13:35:50;65662.34;;;30.16;39.09
7832;BME280;3961;42.058;25.586;2022-09-30T13:38:32;65690.06;;;30.39;38.32
7832;BME280;3961;42.058;25.586;2022-09-30T13:41:07;65682.75;;;30.31;37.87
7832;BME280;3961;42.058;25.586;2022-09-30T13:43:42;65682.56;;;30.28;37.82
7832;BME280;3961;42.058;25.586;2022-09-30T13:46:23;65683.34;;;30.31;39.07
7832;BME280;3961;42.058;25.586;2022-09-30T13:48:55;65675.31;;;30.27;37.72
7832;BME280;3961;42.058;25.586;2022-09-30T13:51:24;65662.75;;;30.14;37.53
7832;BME280;3961;42.058;25.586;2022-09-30T13:53:55;65664.50;;;30.15;37.64
7832;BME280;3961;42.058;25.586;2022-09-30T13:56:33;65665.91;;;30.19;36.77
7832;BME280;3961;42.058;25.586;2022-09-30T13:59:30;65690.84;;;30.42;36.30
7832;BME280;3961;42.058;25.586;2022-09-30T14:05:20;65701.66;;;30.47;36.61
7832;BME280;3961;42.058;25.586;2022-09-30T14:08:08;65696.34;;;30.42;36.09
7832;BME280;3961;42.058;25.586;2022-09-30T14:11:08;65688.66;;;30.36;36.54
7832;BME280;3961;42.058;25.586;2022-09-30T14:14:22;65677.66;;;30.29;37.32
7832;BME280;3961;42.058;25.586;2022-09-30T14:16:51;65655.44;;;30.05;37.91
7832;BME280;3961;42.058;25.586;2022-09-30T14:22:24;65669.63;;;30.24;37.91
7832;BME280;3961;42.058;25.586;2022-09-30T14:24:51;65685.94;;;30.36;37.52
7832;BME280;3961;42.058;25.586;2022-09-30T14:27:37;65686.31;;;30.34;37.31
7832;BME280;3961;42.058;25.586;2022-09-30T14:30:19;65680.63;;;30.31;38.92
7832;BME280;3961;42.058;25.586;2022-09-30T14:32:52;65648.38;;;29.99;37.62
7832;BME280;3961;42.058;25.586;2022-09-30T14:35:22;65633.03;;;29.86;37.17
7832;BME280;3961;42.058;25.586;2022-09-30T14:37:51;65634.63;;;29.92;37.66
7832;BME280;3961;42.058;25.586;2022-09-30T14:40:23;65629.72;;;29.85;37.05
7832;BME280;3961;42.058;25.586;2022-09-30T14:42:49;65613.19;;;29.71;37.70
7832;BME280;3961;42.058;25.586;2022-09-30T14:45:24;65603.97;;;29.65;38.52
7832;BME280;3961;42.058;25.586;2022-09-30T14:47:52;65582.41;;;29.49;38.89
7832;BME280;3961;42.058;25.586;2022-09-30T14:50:24;65591.03;;;29.54;38.89
7832;BME280;3961;42.058;25.586;2022-09-30T14:52:51;65578.06;;;29.43;40.11
7832;BME280;3961;42.058;25.586;2022-09-30T14:55:31;65576.31;;;29.41;39.38
7832;BME280;3961;42.058;25.586;2022-09-30T14:58:22;65560.16;;;29.25;40.31
7832;BME280;3961;42.058;25.586;2022-09-30T15:01:02;65551.94;;;29.18;39.81
7832;BME280;3961;42.058;25.586;2022-09-30T15:03:29;65548.00;;;29.17;39.89
7832;BME280;3961;42.058;25.586;2022-09-30T15:05:57;65548.19;;;29.13;39.81
7832;BME280;3961;42.058;25.586;2022-09-30T15:08:23;65540.72;;;29.08;40.89
7832;BME280;3961;42.058;25.586;2022-09-30T15:10:51;65524.59;;;28.92;41.33
7832;BME280;3961;42.058;25.586;2022-09-30T15:13:18;65522.09;;;28.95;41.94
7832;BME280;3961;42.058;25.586;2022-09-30T15:15:45;65520.13;;;28.91;43.21
7832;BME280;3961;42.058;25.586;2022-09-30T15:18:30;65515.03;;;28.89;41.48
7832;BME280;3961;42.058;25.586;2022-09-30T15:21:00;65507.38;;;28.82;42.62
7832;BME280;3961;42.058;25.586;2022-09-30T15:23:30;65499.88;;;28.71;42.66
7832;BME280;3961;42.058;25.586;2022-09-30T15:25:58;65484.97;;;28.63;42.78
7832;BME280;3961;42.058;25.586;2022-09-30T15:28:24;65474.19;;;28.51;43.10
7832;BME280;3961;42.058;25.586;2022-09-30T15:30:51;65469.84;;;28.45;43.73
7832;BME280;3961;42.058;25.586;2022-09-30T15:33:21;65459.84;;;28.36;44.32
7832;BME280;3961;42.058;25.586;2022-09-30T15:36:00;65431.06;;;28.19;43.72
7832;BME280;3961;42.058;25.586;2022-09-30T15:38:28;65434.97;;;28.20;44.45
7832;BME280;3961;42.058;25.586;2022-09-30T15:41:03;65424.72;;;28.08;44.68
7832;BME280;3961;42.058;25.586;2022-09-30T15:43:32;65415.09;;;27.98;44.65
7832;BME280;3961;42.058;25.586;2022-09-30T15:46:35;65399.28;;;27.91;46.79
7832;BME280;3961;42.058;25.586;2022-09-30T15:49:04;65377.88;;;27.70;46.71
7832;BME280;3961;42.058;25.586;2022-09-30T15:51:35;65362.25;;;27.59;46.80
7832;BME280;3961;42.058;25.586;2022-09-30T15:56:49;65339.06;;;27.37;46.55
7832;BME280;3961;42.058;25.586;2022-09-30T15:59:15;65339.06;;;27.37;47.14
7832;BME280;3961;42.058;25.586;2022-09-30T16:01:43;65334.72;;;27.31;48.29
7832;BME280;3961;42.058;25.586;2022-09-30T16:09:07;65278.72;;;26.87;51.69
7832;BME280;3961;42.058;25.586;2022-09-30T16:11:44;65290.88;;;26.95;52.50
7832;BME280;3961;42.058;25.586;2022-09-30T16:14:21;65257.56;;;26.69;52.01
7832;BME280;3961;42.058;25.586;2022-09-30T16:16:52;65256.75;;;26.66;51.88
7832;BME280;3961;42.058;25.586;2022-09-30T16:19:19;65251.28;;;26.59;52.71
7832;BME280;3961;42.058;25.586;2022-09-30T16:21:51;65256.13;;;26.58;52.99
7832;BME280;3961;42.058;25.586;2022-09-30T16:26:51;65227.03;;;26.42;55.71
7832;BME280;3961;42.058;25.586;2022-09-30T16:29:17;65220.72;;;26.32;56.16
7832;BME280;3961;42.058;25.586;2022-09-30T16:31:44;65215.06;;;26.30;56.26
7832;BME280;3961;42.058;25.586;2022-09-30T16:34:29;65197.81;;;26.13;57.17
7832;BME280;3961;42.058;25.586;2022-09-30T16:37:08;65193.09;;;26.08;57.88
7832;BME280;3961;42.058;25.586;2022-09-30T16:39:35;65178.44;;;25.96;58.97
7832;BME280;3961;42.058;25.586;2022-09-30T16:42:00;65152.44;;;25.78;59.34
7832;BME280;3961;42.058;25.586;2022-09-30T16:44:29;65146.94;;;25.71;58.65
7832;BME280;3961;42.058;25.586;2022-09-30T16:47:01;65133.44;;;25.59;58.87
7832;BME280;3961;42.058;25.586;2022-09-30T16:49:27;65126.75;;;25.51;59.19
7832;BME280;3961;42.058;25.586;2022-09-30T16:51:52;65123.25;;;25.48;59.92
7832;BME280;3961;42.058;25.586;2022-09-30T16:54:18;65100.81;;;25.33;60.62
7832;BME280;3961;42.058;25.586;2022-09-30T16:56:44;65094.13;;;25.25;61.06
7832;BME280;3961;42.058;25.586;2022-09-30T16:59:12;65080.03;;;25.13;61.93
7832;BME280;3961;42.058;25.586;2022-09-30T17:01:38;65092.16;;;25.21;62.47
7832;BME280;3961;42.058;25.586;2022-09-30T17:04:04;65088.63;;;25.18;63.32
7832;BME280;3961;42.058;25.586;2022-09-30T17:06:31;65076.88;;;25.08;63.20
7832;BME280;3961;42.058;25.586;2022-09-30T17:08:57;65073.59;;;25.07;63.57
7832;BME280;3961;42.058;25.586;2022-09-30T17:11:27;65064.22;;;24.99;63.75
7832;BME280;3961;42.058;25.586;2022-09-30T17:14:01;65055.75;;;24.90;63.61
7832;BME280;3961;42.058;25.586;2022-09-30T17:16:27;65017.28;;;24.59;64.33
7832;BME280;3961;42.058;25.586;2022-09-30T17:18:53;64983.66;;;24.27;64.54
7832;BME280;3961;42.058;25.586;2022-09-30T17:21:20;64989.34;;;24.37;58.06
7832;BME280;3961;42.058;25.586;2022-09-30T17:23:46;64995.94;;;24.38;62.14
7832;BME280;3961;42.058;25.586;2022-09-30T17:26:12;64986.81;;;24.32;64.03
7832;BME280;3961;42.058;25.586;2022-09-30T17:28:37;64980.34;;;24.27;64.70
7832;BME280;3961;42.058;25.586;2022-09-30T17:31:03;64963.75;;;24.17;64.81
7832;BME280;3961;42.058;25.586;2022-09-30T17:33:30;64950.44;;;24.01;65.98
7832;BME280;3961;42.058;25.586;2022-09-30T17:35:58;64925.47;;;23.82;67.60
7832;BME280;3961;42.058;25.586;2022-09-30T17:38:24;64945.19;;;23.96;67.80
7832;BME280;3961;42.058;25.586;2022-09-30T17:40:49;64944.59;;;23.96;68.17
7832;BME280;3961;42.058;25.586;2022-09-30T17:43:33;64931.53;;;23.89;69.92
7832;BME280;3961;42.058;25.586;2022-09-30T17:45:59;64930.53;;;23.84;70.20
7832;BME280;3961;42.058;25.586;2022-09-30T17:48:25;64923.72;;;23.80;70.18
7832;BME280;3961;42.058;25.586;2022-09-30T17:50:50;64931.47;;;23.82;71.03
7832;BME280;3961;42.058;25.586;2022-09-30T17:53:19;64949.88;;;24.00;72.85
7832;BME280;3961;42.058;25.586;2022-09-30T17:55:46;64965.09;;;24.13;72.61
7832;BME280;3961;42.058;25.586;2022-09-30T17:58:14;64970.94;;;24.19;72.42
7832;BME280;3961;42.058;25.586;2022-09-30T18:00:40;64968.59;;;24.17;73.16
7832;BME280;3961;42.058;25.586;2022-09-30T18:03:07;64988.94;;;24.32;74.58
7832;BME280;3961;42.058;25.586;2022-09-30T18:05:34;64997.34;;;24.41;75.63
7832;BME280;3961;42.058;25.586;2022-09-30T18:08:00;65001.81;;;24.43;75.96
7832;BME280;3961;42.058;25.586;2022-09-30T18:10:26;65008.47;;;24.51;76.81
7832;BME280;3961;42.058;25.586;2022-09-30T18:12:53;64994.03;;;24.41;75.89
7832;BME280;3961;42.058;25.586;2022-09-30T18:15:22;64955.13;;;24.05;77.02
7832;BME280;3961;42.058;25.586;2022-09-30T18:17:48;64896.78;;;23.57;79.59
7832;BME280;3961;42.058;25.586;2022-09-30T18:20:14;64894.56;;;23.50;79.41
7832;BME280;3961;42.058;25.586;2022-09-30T18:22:40;64879.94;;;23.37;78.22
7832;BME280;3961;42.058;25.586;2022-09-30T18:25:06;64868.22;;;23.27;77.09
7832;BME280;3961;42.058;25.586;2022-09-30T18:27:56;64871.13;;;23.30;77.10
7832;BME280;3961;42.058;25.586;2022-09-30T18:30:22;64841.50;;;23.06;77.40
7832;BME280;3961;42.058;25.586;2022-09-30T18:32:50;64833.91;;;23.00;76.90
7832;BME280;3961;42.058;25.586;2022-09-30T18:35:17;64819.84;;;22.88;75.63
7832;BME280;3961;42.058;25.586;2022-09-30T18:37:46;64829.78;;;22.96;78.12
7832;BME280;3961;42.058;25.586;2022-09-30T18:40:15;64842.81;;;23.03;79.40
7832;BME280;3961;42.058;25.586;2022-09-30T18:42:44;64834.13;;;23.02;81.26
7832;BME280;3961;42.058;25.586;2022-09-30T18:45:11;64845.00;;;23.09;80.73
7832;BME280;3961;42.058;25.586;2022-09-30T18:47:40;64835.28;;;23.03;81.33
7832;BME280;3961;42.058;25.586;2022-09-30T18:50:08;64823.34;;;22.91;80.65
7832;BME280;3961;42.058;25.586;2022-09-30T18:52:34;64829.34;;;22.91;80.84
7832;BME280;3961;42.058;25.586;2022-09-30T18:55:00;64796.19;;;22.65;82.82
7832;BME280;3961;42.058;25.586;2022-09-30T18:57:26;64746.31;;;22.26;86.51
7832;BME280;3961;42.058;25.586;2022-09-30T18:59:51;64735.00;;;22.14;86.63
7832;BME280;3961;42.058;25.586;2022-09-30T19:02:17;64731.06;;;22.06;86.98
7832;BME280;3961;42.058;25.586;2022-09-30T19:04:43;64732.88;;;22.15;86.46
7832;BME280;3961;42.058;25.586;2022-09-30T19:07:08;64742.38;;;22.18;84.49
7832;BME280;3961;42.058;25.586;2022-09-30T19:09:34;64738.28;;;22.15;83.00
7832;BME280;3961;42.058;25.586;2022-09-30T19:12:00;64742.72;;;22.16;83.24
7832;BME280;3961;42.058;25.586;2022-09-30T19:14:26;64724.69;;;22.07;83.99
7832;BME280;3961;42.058;25.586;2022-09-30T19:16:55;64716.47;;;22.00;84.61
7832;BME280;3961;42.058;25.586;2022-09-30T19:19:20;64722.13;;;22.03;84.87
7832;BME280;3961;42.058;25.586;2022-09-30T19:21:47;64731.28;;;22.08;84.91
7832;BME280;3961;42.058;25.586;2022-09-30T19:24:13;64737.91;;;22.17;84.24
7832;BME280;3961;42.058;25.586;2022-09-30T19:26:38;64752.91;;;22.27;83.66
7832;BME280;3961;42.058;25.586;2022-09-30T19:29:05;64756.06;;;22.32;84.11
7832;BME280;3961;42.058;25.586;2022-09-30T19:31:32;64754.66;;;22.29;84.77
7832;BME280;3961;42.058;25.586;2022-09-30T19:33:59;64760.72;;;22.36;84.09
7832;BME280;3961;42.058;25.586;2022-09-30T19:36:26;64761.31;;;22.37;84.99
7832;BME280;3961;42.058;25.586;2022-09-30T19:38:53;64751.38;;;22.28;85.55
7832;BME280;3961;42.058;25.586;2022-09-30T19:41:24;64752.19;;;22.31;86.16
7832;BME280;3961;42.058;25.586;2022-09-30T19:43:50;64755.69;;;22.34;86.04
7832;BME280;3961;42.058;25.586;2022-09-30T19:46:15;64757.00;;;22.31;85.71
7832;BME280;3961;42.058;25.586;2022-09-30T19:48:41;64763.06;;;22.38;85.31
7832;BME280;3961;42.058;25.586;2022-09-30T19:51:10;64762.28;;;22.35;85.26
7832;BME280;3961;42.058;25.586;2022-09-30T19:53:41;64765.19;;;22.38;85.94
7832;BME280;3961;42.058;25.586;2022-09-30T19:56:10;64741.88;;;22.25;86.75
7832;BME280;3961;42.058;25.586;2022-09-30T19:58:42;64743.53;;;22.19;87.76
7832;BME280;3961;42.058;25.586;2022-09-30T20:01:08;64735.78;;;22.17;88.32
7832;BME280;3961;42.058;25.586;2022-09-30T20:03:34;64727.59;;;22.10;88.86
7832;BME280;3961;42.058;25.586;2022-09-30T20:06:19;64740.84;;;22.19;88.02
7832;BME280;3961;42.058;25.586;2022-09-30T20:09:05;64734.03;;;22.16;87.80
7832;BME280;3961;42.058;25.586;2022-09-30T20:11:35;64730.31;;;22.10;87.93
7832;BME280;3961;42.058;25.586;2022-09-30T20:14:03;64730.88;;;22.10;87.91
7832;BME280;3961;42.058;25.586;2022-09-30T20:17:07;64723.31;;;22.04;88.56
7832;BME280;3961;42.058;25.586;2022-09-30T20:19:32;64707.13;;;21.92;89.60
7832;BME280;3961;42.058;25.586;2022-09-30T20:21:58;64711.34;;;21.91;89.88
7832;BME280;3961;42.058;25.586;2022-09-30T20:24:23;64681.19;;;21.67;91.33
7832;BME280;3961;42.058;25.586;2022-09-30T20:26:50;64664.22;;;21.53;91.80
7832;BME280;3961;42.058;25.586;2022-09-30T20:29:16;64673.00;;;21.60;92.25
7832;BME280;3961;42.058;25.586;2022-09-30T20:31:45;64653.13;;;21.43;93.29
7832;BME280;3961;42.058;25.586;2022-09-30T20:34:13;64640.63;;;21.30;94.11
7832;BME280;3961;42.058;25.586;2022-09-30T20:36:40;64651.03;;;21.43;93.33
7832;BME280;3961;42.058;25.586;2022-09-30T20:39:06;64662.69;;;21.54;92.79
7832;BME280;3961;42.058;25.586;2022-09-30T20:41:34;64642.03;;;21.33;93.44
7832;BME280;3961;42.058;25.586;2022-09-30T20:46:27;64661.31;;;21.50;93.36
7832;BME280;3961;42.058;25.586;2022-09-30T20:48:57;64667.28;;;21.51;93.82
7832;BME280;3961;42.058;25.586;2022-09-30T20:51:24;64651.97;;;21.42;94.37
7832;BME280;3961;42.058;25.586;2022-09-30T20:53:52;64648.09;;;21.41;94.41
7832;BME280;3961;42.058;25.586;2022-09-30T20:56:18;64637.81;;;21.34;93.14
7832;BME280;3961;42.058;25.586;2022-09-30T20:58:46;64638.53;;;21.30;91.99
7832;BME280;3961;42.058;25.586;2022-09-30T21:01:14;64655.25;;;21.42;92.39
7832;BME280;3961;42.058;25.586;2022-09-30T21:03:43;64656.03;;;21.45;90.46
7832;BME280;3961;42.058;25.586;2022-09-30T21:06:16;64653.50;;;21.41;90.52
7832;BME280;3961;42.058;25.586;2022-09-30T21:08:42;64647.06;;;21.35;91.24
7832;BME280;3961;42.058;25.586;2022-09-30T21:11:09;64642.25;;;21.36;92.05
7832;BME280;3961;42.058;25.586;2022-09-30T21:13:35;64637.34;;;21.29;92.06
7832;BME280;3961;42.058;25.586;2022-09-30T21:16:03;64631.50;;;21.24;92.40
7832;BME280;3961;42.058;25.586;2022-09-30T21:18:30;64611.41;;;21.04;93.54
7832;BME280;3961;42.058;25.586;2022-09-30T21:20:56;64616.66;;;21.09;93.20
7832;BME280;3961;42.058;25.586;2022-09-30T21:23:24;64606.97;;;21.03;93.05
7832;BME280;3961;42.058;25.586;2022-09-30T21:26:01;64606.59;;;21.05;92.85
7832;BME280;3961;42.058;25.586;2022-09-30T21:28:27;64592.00;;;20.92;92.93
7832;BME280;3961;42.058;25.586;2022-09-30T21:30:53;64587.09;;;20.86;93.28
7832;BME280;3961;42.058;25.586;2022-09-30T21:33:21;64573.09;;;20.73;93.21
7832;BME280;3961;42.058;25.586;2022-09-30T21:35:47;64570.41;;;20.73;92.78
7832;BME280;3961;42.058;25.586;2022-09-30T21:38:13;64565.84;;;20.65;92.62
7832;BME280;3961;42.058;25.586;2022-09-30T21:40:42;64554.25;;;20.62;91.68
7832;BME280;3961;42.058;25.586;2022-09-30T21:43:08;64547.03;;;20.53;91.09
7832;BME280;3961;42.058;25.586;2022-09-30T21:45:33;64543.88;;;20.48;89.42
7832;BME280;3961;42.058;25.586;2022-09-30T21:48:01;64530.44;;;20.36;89.80
7832;BME280;3961;42.058;25.586;2022-09-30T21:50:27;64515.47;;;20.26;88.39
7832;BME280;3961;42.058;25.586;2022-09-30T21:52:52;64510.59;;;20.19;88.78
7832;BME280;3961;42.058;25.586;2022-09-30T21:55:18;64510.38;;;20.17;89.96
7832;BME280;3961;42.058;25.586;2022-09-30T21:57:43;64510.38;;;20.17;90.58
7832;BME280;3961;42.058;25.586;2022-09-30T22:00:12;64495.19;;;20.03;91.65
7832;BME280;3961;42.058;25.586;2022-09-30T22:02:37;64474.41;;;19.88;93.75
7832;BME280;3961;42.058;25.586;2022-09-30T22:05:03;64458.66;;;19.74;94.71
7832;BME280;3961;42.058;25.586;2022-09-30T22:07:30;64440.34;;;19.56;95.17
7832;BME280;3961;42.058;25.586;2022-09-30T22:09:57;64462.75;;;19.77;94.15
7832;BME280;3961;42.058;25.586;2022-09-30T22:12:23;64466.03;;;19.78;96.49
7832;BME280;3961;42.058;25.586;2022-09-30T22:14:48;64476.16;;;19.89;97.88
7832;BME280;3961;42.058;25.586;2022-09-30T22:17:14;64466.84;;;19.81;99.09
7832;BME280;3961;42.058;25.586;2022-09-30T22:19:40;64458.44;;;19.71;99.46
7832;BME280;3961;42.058;25.586;2022-09-30T22:22:08;64443.50;;;19.61;99.72
7832;BME280;3961;42.058;25.586;2022-09-30T22:24:34;64442.69;;;19.58;99.00
7832;BME280;3961;42.058;25.586;2022-09-30T22:27:02;64428.53;;;19.50;98.20
7832;BME280;3961;42.058;25.586;2022-09-30T22:29:31;64430.63;;;19.50;98.16
7832;BME280;3961;42.058;25.586;2022-09-30T22:31:57;64440.34;;;19.56;98.05
7832;BME280;3961;42.058;25.586;2022-09-30T22:34:23;64422.50;;;19.42;97.07
7832;BME280;3961;42.058;25.586;2022-09-30T22:37:08;64436.72;;;19.57;97.24
7832;BME280;3961;42.058;25.586;2022-09-30T22:39:53;64419.56;;;19.40;97.24
7832;BME280;3961;42.058;25.586;2022-09-30T22:42:18;64394.72;;;19.21;98.63
7832;BME280;3961;42.058;25.586;2022-09-30T22:44:44;64404.03;;;19.29;97.76
7832;BME280;3961;42.058;25.586;2022-09-30T22:47:12;64398.78;;;19.24;98.56
7832;BME280;3961;42.058;25.586;2022-09-30T22:49:38;64382.84;;;19.08;99.33
7832;BME280;3961;42.058;25.586;2022-09-30T22:52:04;64398.56;;;19.22;98.25
7832;BME280;3961;42.058;25.586;2022-09-30T22:54:33;64403.81;;;19.26;98.24
7832;BME280;3961;42.058;25.586;2022-09-30T22:56:59;64424.59;;;19.42;97.01
7832;BME280;3961;42.058;25.586;2022-09-30T22:59:26;64423.31;;;19.45;96.16
7832;BME280;3961;42.058;25.586;2022-09-30T23:01:53;64436.84;;;19.53;95.58
7832;BME280;3961;42.058;25.586;2022-09-30T23:04:18;64441.38;;;19.61;95.10
7832;BME280;3961;42.058;25.586;2022-09-30T23:06:49;64431.22;;;19.50;97.27
7832;BME280;3961;42.058;25.586;2022-09-30T23:09:16;64429.50;;;19.49;97.14
7832;BME280;3961;42.058;25.586;2022-09-30T23:11:43;64407.53;;;19.32;98.87
7832;BME280;3961;42.058;25.586;2022-09-30T23:14:10;64391.22;;;19.18;99.66
7832;BME280;3961;42.058;25.586;2022-09-30T23:16:36;64390.63;;;19.17;99.12
7832;BME280;3961;42.058;25.586;2022-09-30T23:19:02;64397.19;;;19.18;98.27
7832;BME280;3961;42.058;25.586;2022-09-30T23:21:27;64386.56;;;19.13;98.72
7832;BME280;3961;42.058;25.586;2022-09-30T23:23:53;64382.50;;;19.10;98.60
7832;BME280;3961;42.058;25.586;2022-09-30T23:26:21;64379.13;;;19.02;98.16
7832;BME280;3961;42.058;25.586;2022-09-30T23:31:22;64380.50;;;19.06;97.00
7832;BME280;3961;42.058;25.586;2022-09-30T23:33:50;64368.50;;;18.98;96.85
7832;BME280;3961;42.058;25.586;2022-09-30T23:36:18;64358.16;;;18.84;97.71
7832;BME280;3961;42.058;25.586;2022-09-30T23:38:45;64364.75;;;18.92;97.32
7832;BME280;3961;42.058;25.586;2022-09-30T23:41:11;64361.63;;;18.87;96.75
7832;BME280;3961;42.058;25.586;2022-09-30T23:43:37;64321.25;;;18.57;97.71
7832;BME280;3961;42.058;25.586;2022-09-30T23:46:05;64317.41;;;18.56;97.47
7832;BME280;3961;42.058;25.586;2022-09-30T23:48:34;64316.00;;;18.52;97.72
7832;BME280;3961;42.058;25.586;2022-09-30T23:51:01;64313.13;;;18.50;97.45
7832;BME280;3961;42.058;25.586;2022-09-30T23:53:28;64305.31;;;18.40;97.93
7832;BME280;3961;42.058;25.586;2022-09-30T23:55:59;64294.47;;;18.33;98.77
7832;BME280;3961;42.058;25.586;2022-09-30T23:58:25;64295.06;;;18.34;98.33
